createdAt,value
2017-08-31T00:00:58.693Z,35.17
2017-08-31T00:03:26.254Z,37.47
2017-08-31T00:05:53.849Z,33.60
2017-08-31T00:08:21.635Z,34.73
2017-08-31T00:10:49.376Z,33.63
2017-08-31T00:13:17.139Z,38.63
2017-08-31T00:15:44.902Z,39.43
2017-08-31T00:18:12.499Z,39.30
2017-08-31T00:20:40.853Z,45.43
2017-08-31T00:23:08.496Z,44.60
2017-08-31T00:25:36.239Z,47.50
2017-08-31T00:28:03.928Z,47.70
2017-08-31T00:30:31.489Z,49.73
2017-08-31T00:32:59.231Z,49.83
2017-08-31T00:35:27.028Z,52.73
2017-08-31T00:37:54.614Z,58.00
2017-08-31T00:40:22.234Z,62.07
2017-08-31T00:42:49.997Z,61.30
2017-08-31T00:45:17.568Z,67.20
2017-08-31T00:47:45.217Z,67.23
2017-08-31T00:50:12.788Z,65.13
2017-08-31T00:52:40.442Z,66.00
2017-08-31T00:55:08.012Z,69.50
2017-08-31T00:57:35.675Z,70.20
2017-08-31T01:00:03.253Z,73.90
2017-08-31T01:02:30.823Z,73.30
2017-08-31T01:04:58.500Z,73.90
2017-08-31T01:07:26.106Z,71.37
2017-08-31T01:09:54.475Z,74.47
2017-08-31T01:12:22.215Z,80.37
2017-08-31T01:14:50.312Z,79.00
2017-08-31T01:17:17.919Z,81.07
2017-08-31T01:19:45.526Z,85.37
2017-08-31T01:22:13.092Z,83.83
2017-08-31T01:24:40.752Z,77.87
2017-08-31T01:27:08.515Z,85.67
2017-08-31T01:29:36.112Z,84.80
2017-08-31T01:32:03.690Z,88.20
2017-08-31T01:34:31.279Z,88.90
2017-08-31T01:36:58.855Z,84.10
2017-08-31T01:39:26.444Z,88.97
2017-08-31T01:41:54.122Z,85.77
2017-08-31T01:44:21.709Z,86.50
2017-08-31T01:46:49.278Z,89.23
2017-08-31T01:49:17.168Z,83.80
2017-08-31T01:51:44.742Z,85.03
2017-08-31T01:54:12.381Z,88.00
2017-08-31T01:56:40.919Z,91.17
2017-08-31T01:59:08.539Z,90.30
2017-08-31T02:01:36.107Z,91.70
2017-08-31T02:04:03.741Z,90.97
2017-08-31T02:06:31.455Z,83.90
2017-08-31T02:08:59.284Z,85.60
2017-08-31T02:11:27.007Z,87.90
2017-08-31T02:13:54.774Z,93.70
2017-08-31T02:16:22.363Z,92.67
2017-08-31T02:18:50.003Z,89.13
2017-08-31T02:21:17.591Z,90.93
2017-08-31T02:23:45.239Z,96.17
2017-08-31T02:26:12.999Z,88.23
2017-08-31T02:28:40.955Z,94.37
2017-08-31T02:31:08.539Z,94.93
2017-08-31T02:33:36.407Z,90.73
2017-08-31T02:36:04.055Z,107.40
2017-08-31T02:38:31.670Z,106.23
2017-08-31T02:40:59.251Z,108.63
2017-08-31T02:43:27.319Z,111.57
2017-08-31T02:45:55.124Z,101.47
2017-08-31T02:48:22.714Z,87.87
2017-08-31T02:50:50.310Z,105.80
2017-08-31T02:53:18.724Z,101.40
2017-08-31T02:55:46.478Z,98.37
2017-08-31T02:58:14.288Z,100.97
2017-08-31T03:00:42.040Z,94.83
2017-08-31T03:03:09.769Z,100.83
2017-08-31T03:05:37.507Z,96.40
2017-08-31T03:08:05.099Z,102.10
2017-08-31T03:10:32.757Z,93.37
2017-08-31T03:13:00.351Z,95.23
2017-08-31T03:15:27.923Z,97.40
2017-08-31T03:17:55.845Z,89.70
2017-08-31T03:20:23.495Z,93.17
2017-08-31T03:22:51.257Z,89.30
2017-08-31T03:25:19.026Z,91.60
2017-08-31T03:27:46.785Z,90.20
2017-08-31T03:30:14.356Z,76.97
2017-08-31T03:32:41.955Z,71.90
2017-08-31T03:35:09.545Z,83.20
2017-08-31T03:37:37.246Z,80.13
2017-08-31T03:40:04.940Z,80.30
2017-08-31T03:42:32.669Z,83.20
2017-08-31T03:45:00.463Z,82.63
2017-08-31T03:47:28.048Z,82.07
2017-08-31T03:49:56.658Z,77.83
2017-08-31T03:52:24.423Z,82.60
2017-08-31T03:54:52.006Z,79.40
2017-08-31T03:57:19.642Z,80.80
2017-08-31T03:59:47.247Z,84.60
2017-08-31T04:02:14.878Z,78.73
2017-08-31T04:04:42.933Z,81.27
2017-08-31T04:07:10.707Z,68.00
2017-08-31T04:09:38.290Z,71.97
2017-08-31T04:12:05.895Z,75.00
2017-08-31T04:14:33.485Z,72.00
2017-08-31T04:17:01.138Z,72.37
2017-08-31T04:19:29.321Z,60.60
2017-08-31T04:21:56.987Z,67.43
2017-08-31T04:24:24.586Z,69.70
2017-08-31T04:26:53.114Z,69.23
2017-08-31T04:29:20.751Z,69.23
2017-08-31T04:31:48.363Z,63.33
2017-08-31T04:34:16.210Z,63.70
2017-08-31T04:36:43.851Z,65.20
2017-08-31T04:39:11.434Z,63.10
2017-08-31T04:41:39.020Z,62.67
2017-08-31T04:44:06.651Z,57.70
2017-08-31T04:46:34.722Z,57.97
2017-08-31T04:49:02.373Z,55.03
2017-08-31T04:51:29.955Z,53.60
2017-08-31T04:53:57.593Z,52.97
2017-08-31T04:56:25.182Z,50.90
2017-08-31T04:58:52.817Z,55.00
2017-08-31T05:01:20.885Z,49.10
2017-08-31T05:03:48.455Z,49.60
2017-08-31T05:06:16.111Z,49.97
2017-08-31T05:08:43.675Z,49.27
2017-08-31T05:11:11.244Z,48.50
2017-08-31T05:13:38.827Z,44.27
2017-08-31T05:16:06.395Z,43.80
2017-08-31T05:18:34.010Z,40.27
2017-08-31T05:21:01.583Z,38.80
2017-08-31T05:23:29.243Z,39.27
2017-08-31T05:25:56.968Z,38.90
2017-08-31T05:28:24.607Z,38.00
2017-08-31T05:30:52.202Z,38.50
2017-08-31T05:33:19.792Z,35.00
2017-08-31T05:35:47.541Z,34.20
2017-08-31T05:38:15.244Z,34.00
2017-08-31T05:40:42.820Z,33.43
2017-08-31T05:43:10.481Z,32.10
2017-08-31T05:45:38.049Z,30.43
2017-08-31T05:48:05.671Z,29.40
2017-08-31T05:50:33.302Z,28.97
2017-08-31T05:53:00.871Z,28.93
2017-08-31T05:55:28.618Z,26.53
2017-08-31T05:57:57.615Z,24.63
2017-08-31T06:00:25.223Z,23.77
2017-08-31T06:02:52.828Z,23.20
2017-08-31T06:05:20.435Z,22.87
2017-08-31T06:07:48.026Z,21.07
2017-08-31T06:10:15.615Z,21.87
2017-08-31T06:12:43.278Z,21.00
2017-08-31T06:15:11.333Z,20.40
2017-08-31T06:17:38.900Z,18.60
2017-08-31T06:20:06.547Z,18.40
2017-08-31T06:22:34.223Z,17.97
2017-08-31T06:25:02.093Z,18.33
2017-08-31T06:27:29.821Z,16.13
2017-08-31T06:29:57.416Z,18.73
2017-08-31T06:32:25.039Z,17.80
2017-08-31T06:34:53.524Z,13.27
2017-08-31T06:37:21.205Z,11.60
2017-08-31T06:39:48.859Z,12.43
2017-08-31T06:42:16.726Z,11.77
2017-08-31T06:44:44.411Z,11.63
2017-08-31T06:47:11.978Z,11.83
2017-08-31T06:49:39.833Z,10.63
2017-08-31T06:55:11.611Z,11.60
2017-08-31T06:57:39.369Z,10.20
2017-08-31T07:00:07.124Z,9.67
2017-08-31T07:02:34.889Z,11.20
2017-08-31T07:05:02.653Z,12.10
2017-08-31T07:07:31.095Z,13.27
2017-08-31T07:09:58.678Z,14.20
2017-08-31T07:12:26.277Z,14.53
2017-08-31T07:14:54.129Z,14.70
2017-08-31T07:17:21.786Z,14.17
2017-08-31T07:19:49.470Z,16.40
2017-08-31T07:22:17.071Z,13.43
2017-08-31T07:24:44.676Z,10.60
2017-08-31T07:27:12.275Z,9.77
2017-08-31T07:29:39.969Z,9.60
2017-08-31T07:32:07.576Z,10.40
2017-08-31T07:34:35.150Z,7.80
2017-08-31T07:37:03.295Z,9.10
2017-08-31T07:39:31.045Z,9.00
2017-08-31T07:41:58.643Z,10.33
2017-08-31T07:44:26.221Z,8.30
2017-08-31T07:46:54.507Z,8.00
2017-08-31T07:49:22.071Z,7.80
2017-08-31T07:51:49.970Z,8.27
2017-08-31T07:54:17.534Z,8.57
2017-08-31T07:56:45.113Z,8.67
2017-08-31T07:59:12.691Z,7.20
2017-08-31T08:01:40.270Z,7.50
2017-08-31T08:04:07.855Z,5.77
2017-08-31T08:06:35.423Z,6.43
2017-08-31T08:09:03.003Z,4.40
2017-08-31T08:11:30.711Z,4.93
2017-08-31T08:13:58.567Z,5.30
2017-08-31T08:16:26.258Z,4.47
2017-08-31T08:18:54.030Z,4.73
2017-08-31T08:21:21.591Z,4.03
2017-08-31T08:23:49.555Z,3.70
2017-08-31T08:26:17.290Z,3.23
2017-08-31T08:28:44.877Z,3.07
2017-08-31T08:31:12.506Z,3.00
2017-08-31T08:33:40.151Z,3.30
2017-08-31T08:36:07.735Z,3.13
2017-08-31T08:38:35.548Z,2.40
2017-08-31T08:41:03.296Z,2.60
2017-08-31T08:43:30.938Z,2.97
2017-08-31T08:45:58.515Z,2.50
2017-08-31T08:48:26.100Z,2.70
2017-08-31T08:50:53.670Z,2.37
2017-08-31T08:53:21.259Z,1.87
2017-08-31T08:55:48.939Z,1.73
2017-08-31T08:58:16.567Z,2.50
2017-08-31T09:00:44.139Z,3.17
2017-08-31T09:03:11.919Z,2.67
2017-08-31T09:05:39.506Z,2.60
2017-08-31T09:08:07.129Z,2.30
2017-08-31T09:10:34.710Z,2.47
2017-08-31T09:13:02.273Z,2.80
2017-08-31T09:15:30.126Z,2.37
2017-08-31T09:17:57.890Z,2.07
2017-08-31T09:20:25.475Z,1.90
2017-08-31T09:22:53.091Z,2.00
2017-08-31T09:25:20.675Z,2.60
2017-08-31T09:27:48.338Z,2.50
2017-08-31T09:30:15.928Z,2.20
2017-08-31T09:32:43.550Z,2.87
2017-08-31T09:35:11.134Z,2.53
2017-08-31T09:37:38.697Z,2.83
2017-08-31T09:40:06.287Z,3.73
2017-08-31T09:42:33.990Z,2.90
2017-08-31T09:45:01.772Z,2.60
2017-08-31T09:47:29.529Z,3.13
2017-08-31T09:49:57.094Z,2.27
2017-08-31T09:52:24.682Z,2.80
2017-08-31T09:54:52.256Z,2.50
2017-08-31T09:57:19.972Z,1.73
2017-08-31T09:59:47.709Z,2.20
2017-08-31T10:02:15.503Z,2.23
2017-08-31T10:04:43.370Z,2.20
2017-08-31T10:07:11.031Z,2.57
2017-08-31T10:09:38.600Z,2.93
2017-08-31T10:12:06.235Z,2.23
2017-08-31T10:14:33.790Z,2.27
2017-08-31T10:17:02.095Z,2.67
2017-08-31T10:19:29.690Z,3.20
2017-08-31T10:21:57.301Z,2.93
2017-08-31T10:24:25.055Z,3.00
2017-08-31T10:26:52.629Z,3.07
2017-08-31T10:29:20.247Z,3.03
2017-08-31T10:31:47.816Z,2.80
2017-08-31T10:34:15.491Z,2.87
2017-08-31T10:36:43.069Z,2.63
2017-08-31T10:39:10.715Z,2.87
2017-08-31T10:41:38.298Z,2.93
2017-08-31T10:44:05.919Z,3.37
2017-08-31T10:46:33.679Z,2.90
2017-08-31T10:49:01.452Z,2.80
2017-08-31T10:51:29.207Z,4.83
2017-08-31T10:53:56.788Z,3.63
2017-08-31T10:56:24.355Z,3.53
2017-08-31T10:58:51.931Z,3.90
2017-08-31T11:01:19.495Z,4.63
2017-08-31T11:03:47.138Z,3.17
2017-08-31T11:06:14.868Z,4.00
2017-08-31T11:08:42.449Z,3.30
2017-08-31T11:11:10.028Z,3.80
2017-08-31T11:13:37.622Z,3.30
2017-08-31T11:16:05.342Z,6.40
2017-08-31T11:18:32.913Z,3.80
2017-08-31T11:21:00.502Z,4.00
2017-08-31T11:23:28.127Z,4.70
2017-08-31T11:25:55.783Z,4.50
2017-08-31T11:28:23.529Z,3.90
2017-08-31T11:30:51.247Z,4.17
2017-08-31T11:33:18.838Z,3.90
2017-08-31T11:35:46.642Z,4.13
2017-08-31T11:38:14.904Z,4.20
2017-08-31T11:40:42.671Z,3.90
2017-08-31T11:43:11.023Z,4.13
2017-08-31T11:45:38.809Z,4.67
2017-08-31T11:48:06.562Z,4.33
2017-08-31T11:50:34.349Z,4.63
2017-08-31T11:53:02.088Z,4.97
2017-08-31T11:55:29.671Z,4.93
2017-08-31T11:57:57.291Z,5.43
2017-08-31T12:00:25.100Z,5.10
2017-08-31T12:02:52.851Z,5.10
2017-08-31T12:05:20.719Z,5.30
2017-08-31T12:07:48.363Z,6.23
2017-08-31T12:10:16.135Z,7.20
2017-08-31T12:12:43.853Z,5.73
2017-08-31T12:15:11.434Z,6.70
2017-08-31T12:17:40.031Z,6.80
2017-08-31T12:20:07.591Z,6.57
2017-08-31T12:22:36.130Z,6.20
2017-08-31T12:25:03.695Z,7.10
2017-08-31T12:27:31.275Z,6.67
2017-08-31T12:29:58.851Z,5.67
2017-08-31T12:32:26.799Z,6.13
2017-08-31T12:34:54.388Z,5.60
2017-08-31T12:37:22.099Z,6.30
2017-08-31T12:39:49.903Z,5.60
2017-08-31T12:42:17.475Z,5.30
2017-08-31T12:44:45.143Z,5.20
2017-08-31T12:47:12.935Z,6.07
2017-08-31T12:49:40.575Z,5.50
2017-08-31T12:52:08.928Z,4.83
2017-08-31T12:54:36.790Z,5.93
2017-08-31T12:57:04.576Z,5.43
2017-08-31T12:59:32.282Z,5.10
2017-08-31T13:01:59.866Z,4.73
2017-08-31T13:04:27.562Z,6.20
2017-08-31T13:06:55.331Z,5.33
2017-08-31T13:09:23.355Z,5.10
2017-08-31T13:11:51.260Z,5.57
2017-08-31T13:14:18.888Z,5.70
2017-08-31T13:16:46.666Z,5.43
2017-08-31T13:19:14.419Z,5.10
2017-08-31T13:21:42.018Z,5.83
2017-08-31T13:24:09.643Z,6.10
2017-08-31T13:26:37.239Z,5.70
2017-08-31T13:29:04.874Z,6.83
2017-08-31T13:31:32.654Z,5.43
2017-08-31T13:34:00.399Z,6.40
2017-08-31T13:36:27.991Z,6.30
2017-08-31T13:38:55.636Z,5.70
2017-08-31T13:41:23.383Z,4.60
2017-08-31T13:43:51.165Z,3.87
2017-08-31T13:46:18.755Z,4.40
2017-08-31T13:48:46.324Z,3.53
2017-08-31T13:51:14.136Z,3.30
2017-08-31T13:53:41.896Z,3.80
2017-08-31T13:56:09.480Z,3.70
2017-08-31T13:58:37.111Z,5.37
2017-08-31T14:01:04.708Z,5.33
2017-08-31T14:03:32.455Z,6.27
2017-08-31T14:06:00.109Z,5.43
2017-08-31T14:08:27.864Z,5.20
2017-08-31T14:10:55.423Z,5.60
2017-08-31T14:13:23.079Z,5.60
2017-08-31T14:15:50.843Z,5.80
2017-08-31T14:18:18.430Z,4.83
2017-08-31T14:20:46.047Z,6.47
2017-08-31T14:23:13.632Z,5.27
2017-08-31T14:25:41.296Z,6.33
2017-08-31T14:28:09.440Z,5.77
2017-08-31T14:30:37.103Z,4.57
2017-08-31T14:33:04.683Z,5.83
2017-08-31T14:35:32.343Z,6.57
2017-08-31T14:38:00.603Z,6.80
2017-08-31T14:40:28.172Z,6.90
2017-08-31T14:42:55.924Z,6.13
2017-08-31T14:45:24.710Z,5.70
2017-08-31T14:47:53.051Z,5.97
2017-08-31T14:50:20.747Z,5.63
2017-08-31T14:52:48.526Z,5.63
2017-08-31T14:55:16.121Z,4.90
2017-08-31T14:57:43.730Z,5.93
2017-08-31T15:00:11.335Z,4.30
2017-08-31T15:02:38.971Z,5.17
2017-08-31T15:05:07.046Z,4.17
2017-08-31T15:07:34.616Z,4.10
2017-08-31T15:10:02.273Z,4.13
2017-08-31T15:12:30.448Z,3.93
2017-08-31T15:14:58.199Z,4.03
2017-08-31T15:17:25.841Z,3.70
2017-08-31T15:19:53.957Z,3.50
2017-08-31T15:22:21.527Z,3.47
2017-08-31T15:24:49.154Z,3.30
2017-08-31T15:27:16.733Z,3.40
2017-08-31T15:29:44.387Z,2.93
2017-08-31T15:32:12.150Z,3.20
2017-08-31T15:34:39.726Z,2.30
2017-08-31T15:37:07.474Z,2.77
2017-08-31T15:39:35.134Z,2.30
2017-08-31T15:42:02.884Z,3.03
2017-08-31T15:44:30.647Z,2.77
2017-08-31T15:46:58.231Z,2.23
2017-08-31T15:49:25.862Z,2.37
2017-08-31T15:51:53.499Z,1.60
2017-08-31T15:54:21.082Z,1.97
2017-08-31T15:56:48.860Z,1.87
2017-08-31T15:59:16.936Z,1.50
2017-08-31T16:01:44.495Z,4.17
2017-08-31T16:04:12.447Z,6.77
2017-08-31T16:06:40.025Z,6.87
2017-08-31T16:09:07.624Z,0.80
2017-08-31T16:11:35.183Z,0.90
2017-08-31T16:14:02.769Z,1.00
2017-08-31T16:16:30.454Z,0.80
2017-08-31T16:18:58.034Z,1.10
2017-08-31T16:21:25.895Z,0.80
2017-08-31T16:23:53.833Z,0.83
2017-08-31T16:26:21.394Z,1.63
2017-08-31T16:28:48.983Z,1.27
2017-08-31T16:31:17.367Z,1.20
2017-08-31T16:33:44.957Z,1.10
2017-08-31T16:36:13.055Z,1.20
2017-08-31T16:38:41.765Z,1.00
2017-08-31T16:41:09.510Z,1.40
2017-08-31T16:43:38.205Z,1.53
2017-08-31T16:46:05.982Z,1.30
2017-08-31T16:48:33.591Z,1.23
2017-08-31T16:51:01.187Z,2.30
2017-08-31T16:53:28.757Z,1.77
2017-08-31T16:55:56.402Z,1.60
2017-08-31T16:58:24.151Z,2.07
2017-08-31T17:00:51.727Z,2.00
2017-08-31T17:03:19.316Z,1.73
2017-08-31T17:05:46.907Z,1.77
2017-08-31T17:08:14.622Z,1.70
2017-08-31T17:10:42.198Z,2.03
2017-08-31T17:13:09.811Z,1.70
2017-08-31T17:15:37.506Z,1.60
2017-08-31T17:18:05.332Z,2.20
2017-08-31T17:20:33.002Z,1.60
2017-08-31T17:23:00.560Z,2.80
2017-08-31T17:25:28.405Z,1.60
2017-08-31T17:27:56.047Z,1.93
2017-08-31T17:30:23.663Z,2.00
2017-08-31T17:32:51.322Z,1.20
2017-08-31T17:35:19.091Z,1.30
2017-08-31T17:37:46.858Z,1.77
2017-08-31T17:40:14.616Z,1.60
2017-08-31T17:42:42.174Z,1.70
2017-08-31T17:45:10.159Z,1.33
2017-08-31T17:47:37.906Z,1.63
2017-08-31T17:50:05.684Z,1.73
2017-08-31T17:52:33.246Z,2.00
2017-08-31T17:55:00.886Z,1.60
2017-08-31T17:57:28.977Z,2.37
2017-08-31T17:59:56.555Z,1.87
2017-08-31T18:02:24.182Z,3.83
2017-08-31T18:04:51.742Z,2.33
2017-08-31T18:07:19.417Z,4.13
2017-08-31T18:09:47.227Z,2.20
2017-08-31T18:12:14.815Z,2.67
2017-08-31T18:14:42.708Z,4.53
2017-08-31T18:17:10.482Z,2.00
2017-08-31T18:19:38.526Z,1.60
2017-08-31T18:22:06.101Z,2.53
2017-08-31T18:24:33.743Z,2.30
2017-08-31T18:27:01.307Z,2.60
2017-08-31T18:29:29.188Z,1.83
2017-08-31T18:31:57.159Z,2.20
2017-08-31T18:34:25.035Z,1.83
2017-08-31T18:36:52.890Z,2.60
2017-08-31T18:39:20.643Z,2.70
2017-08-31T18:41:48.398Z,2.53
2017-08-31T18:44:15.988Z,2.23
2017-08-31T18:46:43.546Z,2.60
2017-08-31T18:49:11.158Z,3.10
2017-08-31T18:51:38.819Z,2.40
2017-08-31T18:54:06.537Z,3.40
2017-08-31T18:56:34.223Z,2.70
2017-08-31T18:59:01.836Z,3.57
2017-08-31T19:01:29.416Z,3.23
2017-08-31T19:03:57.000Z,5.03
2017-08-31T19:06:24.586Z,2.90
2017-08-31T19:08:52.281Z,3.00
2017-08-31T19:11:20.045Z,2.53
2017-08-31T19:13:47.809Z,2.30
2017-08-31T19:16:15.554Z,2.77
2017-08-31T19:18:43.332Z,3.13
2017-08-31T19:21:11.402Z,3.30
2017-08-31T19:23:39.272Z,2.93
2017-08-31T19:26:07.040Z,4.10
2017-08-31T19:28:34.615Z,3.10
2017-08-31T19:31:03.098Z,3.20
2017-08-31T19:33:31.799Z,3.27
2017-08-31T19:35:59.367Z,3.40
2017-08-31T19:38:26.960Z,2.67
2017-08-31T19:40:54.539Z,3.67
2017-08-31T19:43:22.163Z,3.03
2017-08-31T19:45:49.733Z,3.87
2017-08-31T19:48:17.431Z,2.80
2017-08-31T19:50:45.175Z,3.80
2017-08-31T19:53:13.747Z,3.60
2017-08-31T19:55:41.307Z,3.53
2017-08-31T19:58:09.389Z,3.60
2017-08-31T20:00:37.150Z,2.90
2017-08-31T20:03:04.923Z,3.70
2017-08-31T20:05:32.963Z,3.17
2017-08-31T20:08:01.616Z,3.47
2017-08-31T20:10:29.183Z,3.10
2017-08-31T20:12:56.742Z,3.40
2017-08-31T20:15:24.357Z,4.40
2017-08-31T20:17:52.106Z,3.27
2017-08-31T20:20:19.879Z,3.40
2017-08-31T20:22:47.450Z,3.80
2017-08-31T20:25:15.049Z,3.97
2017-08-31T20:27:42.867Z,3.40
2017-08-31T20:30:10.923Z,7.27
2017-08-31T20:32:38.687Z,4.50
2017-08-31T20:35:06.451Z,3.63
2017-08-31T20:37:34.741Z,3.00
2017-08-31T20:40:02.348Z,3.83
2017-08-31T20:42:30.031Z,4.17
2017-08-31T20:44:57.820Z,3.67
2017-08-31T20:47:25.587Z,4.43
2017-08-31T20:49:53.356Z,3.67
2017-08-31T20:52:21.395Z,4.27
2017-08-31T20:54:49.086Z,3.20
2017-08-31T20:57:16.671Z,3.17
2017-08-31T20:59:44.413Z,3.53
2017-08-31T21:02:13.079Z,4.13
2017-08-31T21:04:40.839Z,4.00
2017-08-31T21:07:08.590Z,4.07
2017-08-31T21:09:36.352Z,3.70
2017-08-31T21:12:04.252Z,5.23
2017-08-31T21:14:31.832Z,3.37
2017-08-31T21:16:59.418Z,4.13
2017-08-31T21:19:27.956Z,4.00
2017-08-31T21:21:55.767Z,4.80
2017-08-31T21:24:23.338Z,4.93
2017-08-31T21:26:51.023Z,4.30
2017-08-31T21:29:18.608Z,3.70
2017-08-31T21:31:46.171Z,3.60
2017-08-31T21:34:14.006Z,5.10
2017-08-31T21:36:41.697Z,4.03
2017-08-31T21:39:09.283Z,4.33
2017-08-31T21:41:36.864Z,3.20
2017-08-31T21:44:05.487Z,2.93
2017-08-31T21:46:33.054Z,3.50
2017-08-31T21:49:00.651Z,4.03
2017-08-31T21:51:28.211Z,4.00
2017-08-31T21:53:55.820Z,4.03
2017-08-31T21:56:23.554Z,3.23
2017-08-31T21:58:51.144Z,3.43
2017-08-31T22:01:19.430Z,3.10
2017-08-31T22:03:47.094Z,3.30
2017-08-31T22:06:14.656Z,3.77
2017-08-31T22:08:42.387Z,5.53
2017-08-31T22:11:09.968Z,3.90
2017-08-31T22:13:38.530Z,3.70
2017-08-31T22:16:06.917Z,5.13
2017-08-31T22:18:34.551Z,3.53
2017-08-31T22:21:02.491Z,4.37
2017-08-31T22:23:30.055Z,4.00
2017-08-31T22:25:57.943Z,4.70
2017-08-31T22:28:25.849Z,4.40
2017-08-31T22:30:53.443Z,5.00
2017-08-31T22:33:21.006Z,4.00
2017-08-31T22:35:49.019Z,4.90
2017-08-31T22:38:16.798Z,5.73
2017-08-31T22:40:44.543Z,3.80
2017-08-31T22:43:12.112Z,4.03
2017-08-31T22:45:39.755Z,3.30
2017-08-31T22:48:07.531Z,5.73
2017-08-31T22:50:35.096Z,3.70
2017-08-31T22:53:02.865Z,7.17
2017-08-31T22:55:30.510Z,3.87
2017-08-31T22:58:19.726Z,3.40
2017-08-31T23:00:47.547Z,7.00
2017-08-31T23:03:15.154Z,5.10
2017-08-31T23:05:42.743Z,6.83
2017-08-31T23:08:10.851Z,4.50
2017-08-31T23:10:39.191Z,3.40
2017-08-31T23:13:07.567Z,4.47
2017-08-31T23:15:35.976Z,5.80
2017-08-31T23:18:03.728Z,4.40
2017-08-31T23:20:31.494Z,4.30
2017-08-31T23:22:59.259Z,4.67
2017-08-31T23:25:27.032Z,3.60
2017-08-31T23:27:54.787Z,4.50
2017-08-31T23:30:22.550Z,3.90
2017-08-31T23:32:50.222Z,5.57
2017-08-31T23:35:18.027Z,5.60
2017-08-31T23:37:45.838Z,6.20
2017-08-31T23:40:13.906Z,3.60
2017-08-31T23:42:41.471Z,3.77
2017-08-31T23:45:09.135Z,3.43
2017-08-31T23:47:37.826Z,4.80
2017-08-31T23:50:05.511Z,9.23
2017-08-31T23:52:33.467Z,4.60
2017-08-31T23:55:01.053Z,5.07
2017-08-31T23:57:28.868Z,6.00
2017-08-31T23:59:56.498Z,3.80
